^^
Grace C. Lehan Memorial Weather Station Historical Data
Daily Summary for January 23, 2022 Units:  Both    English   Metric
Daily Weekly Monthly Yearly
  High: Low: Average:
Temperature: 69.1 °F /  20.6 °C 30.4 °F /  -0.9 °C 49.8 °F /  9.9 °C
Dew Point: 58.1 °F /  14.5 °C 18.1 °F /  -7.7 °C 43.3 °F /  6.3 °C
Humidity: 96.7% 49% 79%
Wind Speed: 11.2mph /  18km/h - 3mph /  4.8km/h
Wind Gust: 28mph /  45.1km/h - -
Wind- - West
Pressure: 30.24 in /  1023.9 hPa 29.78 in /  1008.4 hPa -
Precipitation: 0.00 in /  0 mm    
 
 
Tabular Data for January 23, 2022
Time Temperature Dew Point Pressure Wind Wind Speed Wind Gust Humidity Rainfall Rate (Hourly) solar
00:04 55.3 °F /  12.9 °C 53.1 °F /  11.7 °C 29.89in /  1012.1hPa South 1.6mph /  2.6km/h 11mph /  17.7km/h 92% 0.00in /  0mm 0 W/m2
00:09 55.2 °F /  12.9 °C 53.1 °F /  11.7 °C 29.89in /  1012.1hPa SSW 1.1mph /  1.8km/h 10mph /  16.1km/h 92.5% 0.00in /  0mm 0 W/m2
00:14 55.1 °F /  12.8 °C 53.1 °F /  11.7 °C 29.89in /  1012.1hPa SSW 0.7mph /  1.1km/h 10mph /  16.1km/h 93% 0.00in /  0mm 0 W/m2
00:19 55 °F /  12.8 °C 53 °F /  11.7 °C 29.89in /  1012.1hPa SSW 0.7mph /  1.1km/h 10mph /  16.1km/h 93% 0.00in /  0mm 0 W/m2
00:24 54.9 °F /  12.7 °C 52.8 °F /  11.6 °C 29.89in /  1012.1hPa SW 1mph /  1.6km/h 10mph /  16.1km/h 92.5% 0.00in /  0mm 0 W/m2
00:29 54.8 °F /  12.7 °C 52.8 °F /  11.6 °C 29.89in /  1012.1hPa SW 0.7mph /  1.1km/h 10mph /  16.1km/h 93% 0.00in /  0mm 0 W/m2
00:34 54.8 °F /  12.7 °C 52.8 °F /  11.6 °C 29.89in /  1012.1hPa SSW 0.4mph /  0.6km/h 10mph /  16.1km/h 93% 0.00in /  0mm 0 W/m2
00:39 54.7 °F /  12.6 °C 52.7 °F /  11.5 °C 29.89in /  1012.1hPa SSW 0.4mph /  0.6km/h 4mph /  6.4km/h 93% 0.00in /  0mm 0 W/m2
00:44 54.6 °F /  12.6 °C 52.6 °F /  11.4 °C 29.88in /  1011.7hPa SW 0.2mph /  0.3km/h 4mph /  6.4km/h 93% 0.00in /  0mm 0 W/m2
00:49 54.6 °F /  12.6 °C 52.6 °F /  11.4 °C 29.88in /  1011.7hPa SW 0.1mph /  0.2km/h 4mph /  6.4km/h 93% 0.00in /  0mm 0 W/m2
00:54 54.6 °F /  12.6 °C 52.6 °F /  11.4 °C 29.88in /  1011.7hPa SSW 0.6mph /  1km/h 5mph /  8km/h 93% 0.00in /  0mm 0 W/m2
00:59 54.7 °F /  12.6 °C 52.7 °F /  11.5 °C 29.87in /  1011.4hPa South 0.5mph /  0.8km/h 6mph /  9.7km/h 93% 0.00in /  0mm 0 W/m2
01:04 54.7 °F /  12.6 °C 52.7 °F /  11.5 °C 29.88in /  1011.7hPa South 0.1mph /  0.2km/h 6mph /  9.7km/h 93% 0.00in /  0mm 0 W/m2
01:09 54.7 °F /  12.6 °C 52.7 °F /  11.5 °C 29.88in /  1011.7hPa SW 0.9mph /  1.4km/h 6mph /  9.7km/h 93% 0.00in /  0mm 0 W/m2
01:14 54.7 °F /  12.6 °C 52.7 °F /  11.5 °C 29.87in /  1011.4hPa SW 0.8mph /  1.3km/h 7mph /  11.3km/h 93% 0.00in /  0mm 0 W/m2
01:19 54.7 °F /  12.6 °C 52.7 °F /  11.5 °C 29.87in /  1011.4hPa SW 1.8mph /  2.9km/h 9mph /  14.5km/h 93% 0.00in /  0mm 0 W/m2
01:24 54.8 °F /  12.7 °C 52.8 °F /  11.6 °C 29.87in /  1011.4hPa SW 0.9mph /  1.4km/h 9mph /  14.5km/h 93% 0.00in /  0mm 0 W/m2
01:29 54.8 °F /  12.7 °C 52.8 °F /  11.6 °C 29.87in /  1011.4hPa SW 0.5mph /  0.8km/h 9mph /  14.5km/h 93% 0.00in /  0mm 0 W/m2
01:34 54.9 °F /  12.7 °C 52.9 °F /  11.6 °C 29.87in /  1011.4hPa SW 2.1mph /  3.4km/h 9mph /  14.5km/h 93% 0.00in /  0mm 0 W/m2
01:39 55 °F /  12.8 °C 53 °F /  11.7 °C 29.87in /  1011.4hPa SW 0.8mph /  1.3km/h 9mph /  14.5km/h 93% 0.00in /  0mm 0 W/m2
01:44 55 °F /  12.8 °C 53 °F /  11.7 °C 29.87in /  1011.4hPa SW 1.8mph /  2.9km/h 9mph /  14.5km/h 93% 0.00in /  0mm 0 W/m2
01:49 55.1 °F /  12.8 °C 53.1 °F /  11.7 °C 29.87in /  1011.4hPa SW 0.3mph /  0.5km/h 9mph /  14.5km/h 93% 0.00in /  0mm 0 W/m2
01:54 55.1 °F /  12.8 °C 53.1 °F /  11.7 °C 29.87in /  1011.4hPa SW 1.6mph /  2.6km/h 9mph /  14.5km/h 93% 0.00in /  0mm 0 W/m2
01:59 55.1 °F /  12.8 °C 53.1 °F /  11.7 °C 29.87in /  1011.4hPa SW 0.3mph /  0.5km/h 9mph /  14.5km/h 93% 0.00in /  0mm 0 W/m2
02:04 55.2 °F /  12.9 °C 53.2 °F /  11.8 °C 29.87in /  1011.4hPa SW 0.6mph /  1km/h 9mph /  14.5km/h 93% 0.00in /  0mm 0 W/m2
02:09 55.2 °F /  12.9 °C 53.2 °F /  11.8 °C 29.87in /  1011.4hPa SW 2.2mph /  3.5km/h 6mph /  9.7km/h 93% 0.00in /  0mm 0 W/m2
02:14 55.2 °F /  12.9 °C 53.3 °F /  11.8 °C 29.87in /  1011.4hPa SW 1.5mph /  2.4km/h 6mph /  9.7km/h 93% 0.00in /  0mm 0 W/m2
02:19 55.3 °F /  12.9 °C 53.3 °F /  11.8 °C 29.87in /  1011.4hPa SW 2.3mph /  3.7km/h 9mph /  14.5km/h 93% 0.00in /  0mm 0 W/m2
02:24 55.4 °F /  13 °C 53.4 °F /  11.9 °C 29.87in /  1011.4hPa SW 3.4mph /  5.5km/h 9mph /  14.5km/h 93% 0.00in /  0mm 0 W/m2
02:29 55.5 °F /  13.1 °C 53.5 °F /  11.9 °C 29.86in /  1011.1hPa SW 2.4mph /  3.9km/h 9mph /  14.5km/h 93% 0.00in /  0mm 0 W/m2
02:34 55.6 °F /  13.1 °C 53.6 °F /  12 °C 29.86in /  1011.1hPa SW 3.1mph /  5km/h 9mph /  14.5km/h 93% 0.00in /  0mm 0 W/m2
02:39 55.7 °F /  13.2 °C 53.7 °F /  12.1 °C 29.86in /  1011.1hPa SW 2.3mph /  3.7km/h 11mph /  17.7km/h 93% 0.00in /  0mm 0 W/m2
02:44 55.8 °F /  13.2 °C 53.8 °F /  12.1 °C 29.86in /  1011.1hPa SW 1mph /  1.6km/h 11mph /  17.7km/h 93% 0.00in /  0mm 0 W/m2
02:49 55.8 °F /  13.2 °C 53.8 °F /  12.1 °C 29.87in /  1011.4hPa SW 1mph /  1.6km/h 11mph /  17.7km/h 93% 0.00in /  0mm 0 W/m2
02:54 55.8 °F /  13.2 °C 53.6 °F /  12 °C 29.86in /  1011.1hPa SW 0.5mph /  0.8km/h 11mph /  17.7km/h 92.3% 0.00in /  0mm 0 W/m2
02:59 55.6 °F /  13.1 °C 53.4 °F /  11.9 °C 29.86in /  1011.1hPa SW 0.1mph /  0.2km/h 11mph /  17.7km/h 92% 0.00in /  0mm 0 W/m2
03:04 55.1 °F /  12.8 °C 52.6 °F /  11.4 °C 29.86in /  1011.1hPa SW 0.1mph /  0.2km/h 11mph /  17.7km/h 91.2% 0.00in /  0mm 0 W/m2
03:09 54.6 °F /  12.6 °C 52.1 °F /  11.2 °C 29.86in /  1011.1hPa SW 0.1mph /  0.2km/h 1mph /  1.6km/h 91% 0.00in /  0mm 0 W/m2
03:14 54.1 °F /  12.3 °C 51.6 °F /  10.9 °C 29.86in /  1011.1hPa SSW 0.3mph /  0.5km/h 1mph /  1.6km/h 91.2% 0.00in /  0mm 0 W/m2
03:19 53.7 °F /  12.1 °C 51.5 °F /  10.8 °C 29.86in /  1011.1hPa South 0.9mph /  1.4km/h 6mph /  9.7km/h 91.9% 0.00in /  0mm 0 W/m2
03:24 53.4 °F /  11.9 °C 51.2 °F /  10.7 °C 29.86in /  1011.1hPa South 0.7mph /  1.1km/h 7mph /  11.3km/h 92% 0.00in /  0mm 0 W/m2
03:29 53.2 °F /  11.8 °C 51.2 °F /  10.7 °C 29.86in /  1011.1hPa South 0.3mph /  0.5km/h 7mph /  11.3km/h 92.7% 0.00in /  0mm 0 W/m2
03:34 53.1 °F /  11.7 °C 51.1 °F /  10.6 °C 29.87in /  1011.4hPa South 0.3mph /  0.5km/h 7mph /  11.3km/h 93% 0.00in /  0mm 0 W/m2
03:39 52.9 °F /  11.6 °C 51 °F /  10.6 °C 29.87in /  1011.4hPa South 0.1mph /  0.2km/h 1mph /  1.6km/h 93% 0.00in /  0mm 0 W/m2
03:44 52.8 °F /  11.6 °C 50.8 °F /  10.4 °C 29.86in /  1011.1hPa South 0.1mph /  0.2km/h 1mph /  1.6km/h 93% 0.00in /  0mm 0 W/m2
03:49 52.7 °F /  11.5 °C 50.7 °F /  10.4 °C 29.86in /  1011.1hPa Calm   1mph /  1.6km/h 93% 0.00in /  0mm 0 W/m2
03:54 52.6 °F /  11.4 °C 50.6 °F /  10.3 °C 29.86in /  1011.1hPa South 0.1mph /  0.2km/h 1mph /  1.6km/h 93% 0.00in /  0mm 0 W/m2
03:59 52.4 °F /  11.3 °C 50.5 °F /  10.3 °C 29.86in /  1011.1hPa Calm   1mph /  1.6km/h 93% 0.00in /  0mm 0 W/m2
04:00 52.4 °F /  11.3 °C 50.4 °F /  10.2 °C 29.86in /  1011.1hPa Calm   1mph /  1.6km/h 93% 0.00in /  0mm 0 W/m2
04:09 52.2 °F /  11.2 °C 50.5 °F /  10.3 °C 29.86in /  1011.1hPa South 0.3mph /  0.5km/h 1mph /  1.6km/h 94% 0.00in /  0mm 0 W/m2
04:14 52.2 °F /  11.2 °C 50.5 °F /  10.3 °C 29.86in /  1011.1hPa South 0.1mph /  0.2km/h 1mph /  1.6km/h 94% 0.00in /  0mm 0 W/m2
04:19 52 °F /  11.1 °C 50.4 °F /  10.2 °C 29.86in /  1011.1hPa South 1mph /  1.6km/h 4mph /  6.4km/h 94% 0.00in /  0mm 0 W/m2
04:24 51.9 °F /  11.1 °C 50.3 °F /  10.2 °C 29.86in /  1011.1hPa SSW 0.4mph /  0.6km/h 5mph /  8km/h 94% 0.00in /  0mm 0 W/m2
04:29 51.8 °F /  11 °C 50.2 °F /  10.1 °C 29.86in /  1011.1hPa SSW 0.1mph /  0.2km/h 5mph /  8km/h 94% 0.00in /  0mm 0 W/m2
04:34 51.7 °F /  10.9 °C 50 °F /  10 °C 29.86in /  1011.1hPa Calm   5mph /  8km/h 94% 0.00in /  0mm 0 W/m2
04:39 51.5 °F /  10.8 °C 49.9 °F /  9.9 °C 29.86in /  1011.1hPa Calm   1mph /  1.6km/h 94% 0.00in /  0mm 0 W/m2
04:44 51.5 °F /  10.8 °C 49.8 °F /  9.9 °C 29.85in /  1010.7hPa Calm   1mph /  1.6km/h 94% 0.00in /  0mm 0 W/m2
04:49 51.4 °F /  10.8 °C 49.7 °F /  9.8 °C 29.85in /  1010.7hPa Calm   1mph /  1.6km/h 94% 0.00in /  0mm 0 W/m2
04:54 51.3 °F /  10.7 °C 49.6 °F /  9.8 °C 29.86in /  1011.1hPa Calm   1mph /  1.6km/h 94% 0.00in /  0mm 0 W/m2
04:59 51.2 °F /  10.7 °C 49.5 °F /  9.7 °C 29.86in /  1011.1hPa SSW 0.2mph /  0.3km/h 2mph /  3.2km/h 94% 0.00in /  0mm 0 W/m2
05:04 51.1 °F /  10.6 °C 49.4 °F /  9.7 °C 29.86in /  1011.1hPa SSW 0.1mph /  0.2km/h 2mph /  3.2km/h 94% 0.00in /  0mm 0 W/m2
05:09 51 °F /  10.6 °C 49.3 °F /  9.6 °C 29.86in /  1011.1hPa Calm   1mph /  1.6km/h 94% 0.00in /  0mm 0 W/m2
05:14 50.9 °F /  10.5 °C 49.2 °F /  9.6 °C 29.86in /  1011.1hPa Calm   1mph /  1.6km/h 94% 0.00in /  0mm 0 W/m2
05:19 50.8 °F /  10.4 °C 49.2 °F /  9.6 °C 29.86in /  1011.1hPa Calm   1mph /  1.6km/h 94% 0.00in /  0mm 0 W/m2
05:24 50.8 °F /  10.4 °C 49.2 °F /  9.6 °C 29.86in /  1011.1hPa SSW 0.2mph /  0.3km/h 2mph /  3.2km/h 94.2% 0.00in /  0mm 0 W/m2
05:29 50.7 °F /  10.4 °C 49.3 °F /  9.6 °C 29.86in /  1011.1hPa SSW 0.2mph /  0.3km/h 2mph /  3.2km/h 95% 0.00in /  0mm 0 W/m2
05:34 50.6 °F /  10.3 °C 49.3 °F /  9.6 °C 29.86in /  1011.1hPa SSW 0.1mph /  0.2km/h 2mph /  3.2km/h 95% 0.00in /  0mm 0 W/m2
05:39 50.6 °F /  10.3 °C 49.2 °F /  9.6 °C 29.85in /  1010.7hPa SSW 0.1mph /  0.2km/h 2mph /  3.2km/h 95% 0.00in /  0mm 0 W/m2
05:44 50.6 °F /  10.3 °C 49.2 °F /  9.6 °C 29.85in /  1010.7hPa SSW 0.1mph /  0.2km/h 2mph /  3.2km/h 95% 0.00in /  0mm 0 W/m2
05:49 50.5 °F /  10.3 °C 49.1 °F /  9.5 °C 29.85in /  1010.7hPa SSW 0.1mph /  0.2km/h 2mph /  3.2km/h 95% 0.00in /  0mm 0 W/m2
05:54 50.5 °F /  10.3 °C 49.1 °F /  9.5 °C 29.86in /  1011.1hPa Calm   2mph /  3.2km/h 95% 0.00in /  0mm 0 W/m2
05:59 50.4 °F /  10.2 °C 49 °F /  9.4 °C 29.86in /  1011.1hPa Calm   2mph /  3.2km/h 95% 0.00in /  0mm 0 W/m2
06:04 50.4 °F /  10.2 °C 49 °F /  9.4 °C 29.86in /  1011.1hPa SSW 0.1mph /  0.2km/h 2mph /  3.2km/h 95% 0.00in /  0mm 0 W/m2
06:09 50.4 °F /  10.2 °C 49 °F /  9.4 °C 29.86in /  1011.1hPa SSW 0.5mph /  0.8km/h 3mph /  4.8km/h 95% 0.00in /  0mm 0 W/m2
06:14 50.3 °F /  10.2 °C 48.9 °F /  9.4 °C 29.86in /  1011.1hPa SSW 0.3mph /  0.5km/h 3mph /  4.8km/h 95% 0.00in /  0mm 0 W/m2
06:19 50.3 °F /  10.2 °C 48.9 °F /  9.4 °C 29.86in /  1011.1hPa Calm   3mph /  4.8km/h 95% 0.00in /  0mm 0 W/m2
06:24 50.3 °F /  10.2 °C 49 °F /  9.4 °C 29.86in /  1011.1hPa Calm   3mph /  4.8km/h 95% 0.00in /  0mm 0 W/m2
06:29 50.4 °F /  10.2 °C 49 °F /  9.4 °C 29.86in /  1011.1hPa Calm   3mph /  4.8km/h 95% 0.00in /  0mm 0 W/m2
06:34 50.3 °F /  10.2 °C 49 °F /  9.4 °C 29.86in /  1011.1hPa Calm   3mph /  4.8km/h 95% 0.00in /  0mm 0 W/m2
06:39 50.3 °F /  10.2 °C 48.9 °F /  9.4 °C 29.86in /  1011.1hPa Calm     95% 0.00in /  0mm 0 W/m2
06:44 50.3 °F /  10.2 °C 48.9 °F /  9.4 °C 29.86in /  1011.1hPa Calm     95% 0.00in /  0mm 0 W/m2
06:49 50.3 °F /  10.2 °C 48.9 °F /  9.4 °C 29.85in /  1010.7hPa Calm     95% 0.00in /  0mm 5 W/m2
06:54 50.3 °F /  10.2 °C 48.9 °F /  9.4 °C 29.85in /  1010.7hPa Calm     95% 0.00in /  0mm 9 W/m2
06:59 50.2 °F /  10.1 °C 48.9 °F /  9.4 °C 29.85in /  1010.7hPa Calm     95% 0.00in /  0mm 12 W/m2
07:04 50.3 °F /  10.2 °C 48.9 °F /  9.4 °C 29.85in /  1010.7hPa Calm     95% 0.00in /  0mm 18 W/m2
07:09 50.3 °F /  10.2 °C 48.9 °F /  9.4 °C 29.85in /  1010.7hPa Calm     95% 0.00in /  0mm 23 W/m2
07:14 50.3 °F /  10.2 °C 49.2 °F /  9.6 °C 29.85in /  1010.7hPa Calm     95.9% 0.00in /  0mm 25 W/m2
07:19 50.4 °F /  10.2 °C 49.3 °F /  9.6 °C 29.85in /  1010.7hPa SSW 0.6mph /  1km/h 4mph /  6.4km/h 96% 0.00in /  0mm 26 W/m2
07:24 50.5 °F /  10.3 °C 49.4 °F /  9.7 °C 29.86in /  1011.1hPa SSW 0.9mph /  1.4km/h 4mph /  6.4km/h 96% 0.00in /  0mm 32 W/m2
07:29 50.5 °F /  10.3 °C 49.4 °F /  9.7 °C 29.85in /  1010.7hPa SSW 0.4mph /  0.6km/h 4mph /  6.4km/h 96% 0.00in /  0mm 33 W/m2
07:34 50.6 °F /  10.3 °C 49.5 °F /  9.7 °C 29.85in /  1010.7hPa SSW 1mph /  1.6km/h 4mph /  6.4km/h 96% 0.00in /  0mm 47 W/m2
07:39 50.8 °F /  10.4 °C 49.7 °F /  9.8 °C 29.86in /  1011.1hPa SSW 0.8mph /  1.3km/h 4mph /  6.4km/h 96% 0.00in /  0mm 47 W/m2
07:44 50.8 °F /  10.4 °C 49.7 °F /  9.8 °C 29.86in /  1011.1hPa SSW 1.3mph /  2.1km/h 4mph /  6.4km/h 96% 0.00in /  0mm 44 W/m2
07:49 50.9 °F /  10.5 °C 49.8 °F /  9.9 °C 29.85in /  1010.7hPa SSW 1.1mph /  1.8km/h 4mph /  6.4km/h 96% 0.00in /  0mm 49 W/m2
07:54 50.9 °F /  10.5 °C 49.8 °F /  9.9 °C 29.86in /  1011.1hPa SSW 0.9mph /  1.4km/h 4mph /  6.4km/h 96% 0.00in /  0mm 60 W/m2
07:59 51 °F /  10.6 °C 49.9 °F /  9.9 °C 29.86in /  1011.1hPa SSW 0.2mph /  0.3km/h 4mph /  6.4km/h 96% 0.00in /  0mm 65 W/m2
08:04 51.1 °F /  10.6 °C 50 °F /  10 °C 29.86in /  1011.1hPa SSW 0.5mph /  0.8km/h 4mph /  6.4km/h 96% 0.00in /  0mm 65 W/m2
08:09 51.2 °F /  10.7 °C 50.1 °F /  10.1 °C 29.86in /  1011.1hPa SSW 1.3mph /  2.1km/h 4mph /  6.4km/h 96% 0.00in /  0mm 53 W/m2
08:14 51.2 °F /  10.7 °C 50.1 °F /  10.1 °C 29.86in /  1011.1hPa SSW 1.1mph /  1.8km/h 4mph /  6.4km/h 96% 0.00in /  0mm 72 W/m2
08:19 51.3 °F /  10.7 °C 50.2 °F /  10.1 °C 29.86in /  1011.1hPa SSW 0.3mph /  0.5km/h 4mph /  6.4km/h 96% 0.00in /  0mm 76 W/m2
08:24 51.4 °F /  10.8 °C 50.3 °F /  10.2 °C 29.86in /  1011.1hPa Calm   4mph /  6.4km/h 96% 0.00in /  0mm 77 W/m2
08:29 51.5 °F /  10.8 °C 50.4 °F /  10.2 °C 29.86in /  1011.1hPa Calm   4mph /  6.4km/h 96% 0.00in /  0mm 77 W/m2
08:34 51.8 °F /  11 °C 50.7 °F /  10.4 °C 29.86in /  1011.1hPa Calm   4mph /  6.4km/h 96% 0.00in /  0mm 74 W/m2
08:39 52 °F /  11.1 °C 50.9 °F /  10.5 °C 29.86in /  1011.1hPa SSW 0.8mph /  1.3km/h 2mph /  3.2km/h 96% 0.00in /  0mm 93 W/m2
08:44 52.1 °F /  11.2 °C 51 °F /  10.6 °C 29.86in /  1011.1hPa SSW 0.4mph /  0.6km/h 2mph /  3.2km/h 96% 0.00in /  0mm 105 W/m2
08:49 52.3 °F /  11.3 °C 51.2 °F /  10.7 °C 29.86in /  1011.1hPa Calm   2mph /  3.2km/h 96% 0.00in /  0mm 113 W/m2
08:54 52.4 °F /  11.3 °C 51.3 °F /  10.7 °C 29.86in /  1011.1hPa SSW 0.1mph /  0.2km/h 2mph /  3.2km/h 96% 0.00in /  0mm 113 W/m2
08:59 52.6 °F /  11.4 °C 51.5 °F /  10.8 °C 29.85in /  1010.7hPa Calm   2mph /  3.2km/h 96% 0.00in /  0mm 91 W/m2
09:04 52.8 °F /  11.6 °C 51.7 °F /  10.9 °C 29.85in /  1010.7hPa Calm   2mph /  3.2km/h 96% 0.00in /  0mm 107 W/m2
09:09 53 °F /  11.7 °C 51.9 °F /  11.1 °C 29.84in /  1010.4hPa Calm     96% 0.00in /  0mm 121 W/m2
09:14 53.2 °F /  11.8 °C 52.1 °F /  11.2 °C 29.84in /  1010.4hPa SSW 0.4mph /  0.6km/h 2mph /  3.2km/h 96% 0.00in /  0mm 127 W/m2
09:19 53.3 °F /  11.8 °C 52.2 °F /  11.2 °C 29.84in /  1010.4hPa SSW 0.7mph /  1.1km/h 3mph /  4.8km/h 96% 0.00in /  0mm 135 W/m2
09:24 53.7 °F /  12.1 °C 52.6 °F /  11.4 °C 29.84in /  1010.4hPa SSW 0.2mph /  0.3km/h 3mph /  4.8km/h 96% 0.00in /  0mm 123 W/m2
09:29 54 °F /  12.2 °C 52.9 °F /  11.6 °C 29.84in /  1010.4hPa SSW 0.6mph /  1km/h 3mph /  4.8km/h 96% 0.00in /  0mm 104 W/m2
09:34 54.2 °F /  12.3 °C 53.1 °F /  11.7 °C 29.84in /  1010.4hPa SSW 1mph /  1.6km/h 4mph /  6.4km/h 96% 0.00in /  0mm 151 W/m2
09:39 54.5 °F /  12.5 °C 53.4 °F /  11.9 °C 29.84in /  1010.4hPa SSW 1.3mph /  2.1km/h 5mph /  8km/h 96% 0.00in /  0mm 163 W/m2
09:44 55.1 °F /  12.8 °C 54 °F /  12.2 °C 29.83in /  1010hPa SW 1.2mph /  1.9km/h 9mph /  14.5km/h 96.1% 0.00in /  0mm 179 W/m2
09:49 55.9 °F /  13.3 °C 54.9 °F /  12.7 °C 29.84in /  1010.4hPa SW 2.2mph /  3.5km/h 10mph /  16.1km/h 96.5% 0.00in /  0mm 163 W/m2
09:54 56.5 °F /  13.6 °C 55.6 °F /  13.1 °C 29.84in /  1010.4hPa SW 1.4mph /  2.3km/h 10mph /  16.1km/h 96.6% 0.00in /  0mm 197 W/m2
09:59 57 °F /  13.9 °C 56.1 °F /  13.4 °C 29.84in /  1010.4hPa SW 1.1mph /  1.8km/h 10mph /  16.1km/h 96.7% 0.00in /  0mm 213 W/m2
10:04 57.5 °F /  14.2 °C 56.5 °F /  13.6 °C 29.84in /  1010.4hPa SW 0.5mph /  0.8km/h 10mph /  16.1km/h 96.4% 0.00in /  0mm 241 W/m2
10:09 58 °F /  14.4 °C 56.9 °F /  13.8 °C 29.83in /  1010hPa SW 0.3mph /  0.5km/h 3mph /  4.8km/h 96% 0.00in /  0mm 239 W/m2
10:14 58.5 °F /  14.7 °C 57.3 °F /  14.1 °C 29.84in /  1010.4hPa SW 1.1mph /  1.8km/h 4mph /  6.4km/h 96% 0.00in /  0mm 236 W/m2
10:19 58.9 °F /  14.9 °C 57.5 °F /  14.2 °C 29.84in /  1010.4hPa SW 1mph /  1.6km/h 4mph /  6.4km/h 95.1% 0.00in /  0mm 200 W/m2
10:24 59.3 °F /  15.2 °C 57.6 °F /  14.2 °C 29.83in /  1010hPa SW 2.1mph /  3.4km/h 6mph /  9.7km/h 93.8% 0.00in /  0mm 206 W/m2
10:29 59.8 °F /  15.4 °C 57.6 °F /  14.2 °C 29.83in /  1010hPa SW 1.5mph /  2.4km/h 6mph /  9.7km/h 92.6% 0.00in /  0mm 306 W/m2
10:34 60.3 °F /  15.7 °C 57.7 °F /  14.3 °C 29.83in /  1010hPa SW 2mph /  3.2km/h 6mph /  9.7km/h 91.3% 0.00in /  0mm 244 W/m2
10:39 60.7 °F /  15.9 °C 57.7 °F /  14.3 °C 29.83in /  1010hPa SW 2.2mph /  3.5km/h 7mph /  11.3km/h 89.6% 0.00in /  0mm 236 W/m2
10:44 61.2 °F /  16.2 °C 57.7 °F /  14.3 °C 29.83in /  1010hPa SW 2.8mph /  4.5km/h 8mph /  12.9km/h 88.2% 0.00in /  0mm 246 W/m2
10:49 61.6 °F /  16.4 °C 57.7 °F /  14.3 °C 29.83in /  1010hPa SW 2.9mph /  4.7km/h 10mph /  16.1km/h 87% 0.00in /  0mm 241 W/m2
10:54 61.9 °F /  16.6 °C 57.6 °F /  14.2 °C 29.83in /  1010hPa SW 2.6mph /  4.2km/h 11mph /  17.7km/h 85.8% 0.00in /  0mm 260 W/m2
10:59 62.1 °F /  16.7 °C 57.5 °F /  14.2 °C 29.83in /  1010hPa SW 3.4mph /  5.5km/h 11mph /  17.7km/h 85% 0.00in /  0mm 283 W/m2
11:04 62.4 °F /  16.9 °C 57.8 °F /  14.3 °C 29.83in /  1010hPa SW 2.8mph /  4.5km/h 11mph /  17.7km/h 84.9% 0.00in /  0mm 257 W/m2
11:09 62.6 °F /  17 °C 57.6 °F /  14.2 °C 29.83in /  1010hPa SW 1.8mph /  2.9km/h 7mph /  11.3km/h 83.8% 0.00in /  0mm 236 W/m2
11:14 62.9 °F /  17.2 °C 57.7 °F /  14.3 °C 29.83in /  1010hPa SW 3mph /  4.8km/h 12mph /  19.3km/h 83.3% 0.00in /  0mm 250 W/m2
11:19 63.1 °F /  17.3 °C 57.6 °F /  14.2 °C 29.82in /  1009.7hPa SW 2.3mph /  3.7km/h 12mph /  19.3km/h 82.1% 0.00in /  0mm 276 W/m2
11:24 63.4 °F /  17.4 °C 57.8 °F /  14.3 °C 29.82in /  1009.7hPa SW 1.6mph /  2.6km/h 12mph /  19.3km/h 82% 0.00in /  0mm 276 W/m2
11:29 63.8 °F /  17.7 °C 57.9 °F /  14.4 °C 29.82in /  1009.7hPa SW 3.1mph /  5km/h 13mph /  20.9km/h 81.1% 0.00in /  0mm 239 W/m2
11:34 64.4 °F /  18 °C 58.1 °F /  14.5 °C 29.82in /  1009.7hPa SW 2.8mph /  4.5km/h 13mph /  20.9km/h 80% 0.00in /  0mm 227 W/m2
11:39 64.8 °F /  18.2 °C 58 °F /  14.4 °C 29.81in /  1009.4hPa SW 2.3mph /  3.7km/h 11mph /  17.7km/h 78.7% 0.00in /  0mm 241 W/m2
11:44 65 °F /  18.3 °C 58 °F /  14.4 °C 29.81in /  1009.4hPa SW 2.4mph /  3.9km/h 11mph /  17.7km/h 78% 0.00in /  0mm 241 W/m2
11:49 65.3 °F /  18.5 °C 58 °F /  14.4 °C 29.82in /  1009.7hPa SW 2.3mph /  3.7km/h 11mph /  17.7km/h 77.3% 0.00in /  0mm 243 W/m2
11:54 65.4 °F /  18.6 °C 57.6 °F /  14.2 °C 29.82in /  1009.7hPa WSW 2.3mph /  3.7km/h 13mph /  20.9km/h 75.8% 0.00in /  0mm 253 W/m2
11:59 65.6 °F /  18.7 °C 57.7 °F /  14.3 °C 29.81in /  1009.4hPa SW 3.6mph /  5.8km/h 13mph /  20.9km/h 75.5% 0.00in /  0mm 350 W/m2
12:09 65.8 °F /  18.8 °C 56.9 °F /  13.8 °C 29.81in /  1009.4hPa WSW 2mph /  3.2km/h 13mph /  20.9km/h 73% 0.00in /  0mm 250 W/m2
12:14 65.9 °F /  18.8 °C 56.7 °F /  13.7 °C 29.81in /  1009.4hPa SW 2.5mph /  4km/h 13mph /  20.9km/h 72.4% 0.00in /  0mm 223 W/m2
12:19 66 °F /  18.9 °C 56.1 °F /  13.4 °C 29.81in /  1009.4hPa SW 3.9mph /  6.3km/h 14mph /  22.5km/h 70.5% 0.00in /  0mm 229 W/m2
12:24 66.1 °F /  18.9 °C 55.2 °F /  12.9 °C 29.80in /  1009hPa WSW 2mph /  3.2km/h 14mph /  22.5km/h 68% 0.00in /  0mm 230 W/m2
12:29 66.2 °F /  19 °C 55.2 °F /  12.9 °C 29.81in /  1009.4hPa WSW 2.9mph /  4.7km/h 14mph /  22.5km/h 67.4% 0.00in /  0mm 241 W/m2
12:34 66.4 °F /  19.1 °C 55.1 °F /  12.8 °C 29.81in /  1009.4hPa SW 2.6mph /  4.2km/h 14mph /  22.5km/h 66.9% 0.00in /  0mm 221 W/m2
12:39 66.6 °F /  19.2 °C 54.5 °F /  12.5 °C 29.81in /  1009.4hPa SW 4.2mph /  6.8km/h 18mph /  29km/h 65.2% 0.00in /  0mm 232 W/m2
12:44 66.8 °F /  19.3 °C 54.7 °F /  12.6 °C 29.80in /  1009hPa SW 2.5mph /  4km/h 18mph /  29km/h 65% 0.00in /  0mm 267 W/m2
12:49 67 °F /  19.4 °C 54.4 °F /  12.4 °C 29.80in /  1009hPa SW 3.6mph /  5.8km/h 18mph /  29km/h 64% 0.00in /  0mm 207 W/m2
12:53 67.2 °F /  19.6 °C 54.2 °F /  12.3 °C 29.80in /  1009hPa SW 3.7mph /  6km/h 18mph /  29km/h 63% 0.00in /  0mm 207 W/m2
13:00 67.7 °F /  19.8 °C 54.7 °F /  12.6 °C 29.79in /  1008.7hPa SW 4mph /  6.4km/h 18mph /  29km/h 63% 0.00in /  0mm 211 W/m2
13:30 68.4 °F /  20.2 °C 54 °F /  12.2 °C 29.78in /  1008.4hPa SW 5mph /  8km/h 21mph /  33.8km/h 60% 0.00in /  0mm 185 W/m2
14:00 68.6 °F /  20.3 °C 51.8 °F /  11 °C 29.78in /  1008.4hPa SW 5mph /  8km/h 19mph /  30.6km/h 55% 0.00in /  0mm 196 W/m2
14:30 68.5 °F /  20.3 °C 50.2 °F /  10.1 °C 29.78in /  1008.4hPa West 4mph /  6.4km/h 23mph /  37km/h 52% 0.00in /  0mm 136 W/m2
15:00 69.1 °F /  20.6 °C 49.2 °F /  9.6 °C 29.79in /  1008.7hPa WSW 6mph /  9.7km/h 22mph /  35.4km/h 49% 0.00in /  0mm 264 W/m2
15:30 65.8 °F /  18.8 °C 46.7 °F /  8.2 °C 29.82in /  1009.7hPa WNW 8mph /  12.9km/h 28mph /  45.1km/h 50% 0.00in /  0mm 52 W/m2
16:04 60.3 °F /  15.7 °C 44.1 °F /  6.7 °C 29.87in /  1011.4hPa NW 8.3mph /  13.4km/h 13mph /  20.9km/h 55% 0.00in /  0mm 28 W/m2
16:09 59.8 °F /  15.4 °C 43.9 °F /  6.6 °C 29.88in /  1011.7hPa NW 7mph /  11.3km/h 21mph /  33.8km/h 55.5% 0.00in /  0mm 28 W/m2
16:14 59 °F /  15 °C 43.3 °F /  6.3 °C 29.88in /  1011.7hPa NW 6.5mph /  10.5km/h 21mph /  33.8km/h 56% 0.00in /  0mm 28 W/m2
16:19 58.3 °F /  14.6 °C 42.9 °F /  6.1 °C 29.89in /  1012.1hPa NW 8.6mph /  13.8km/h 21mph /  33.8km/h 56.4% 0.00in /  0mm 26 W/m2
16:24 57.6 °F /  14.2 °C 42.6 °F /  5.9 °C 29.89in /  1012.1hPa NW 7.3mph /  11.7km/h 21mph /  33.8km/h 57.1% 0.00in /  0mm 26 W/m2
16:29 56.8 °F /  13.8 °C 41.7 °F /  5.4 °C 29.90in /  1012.4hPa NW 4.1mph /  6.6km/h 21mph /  33.8km/h 56.9% 0.00in /  0mm 25 W/m2
16:34 56.1 °F /  13.4 °C 41.1 °F /  5.1 °C 29.90in /  1012.4hPa NW 5.2mph /  8.4km/h 21mph /  33.8km/h 57.2% 0.00in /  0mm 25 W/m2
16:39 55.2 °F /  12.9 °C 40.6 °F /  4.8 °C 29.90in /  1012.4hPa NW 7.5mph /  12.1km/h 20mph /  32.2km/h 57.8% 0.00in /  0mm 21 W/m2
16:44 54.3 °F /  12.4 °C 40.1 °F /  4.5 °C 29.90in /  1012.4hPa NW 2.7mph /  4.3km/h 20mph /  32.2km/h 58.5% 0.00in /  0mm 19 W/m2
16:49 53.8 °F /  12.1 °C 40.1 °F /  4.5 °C 29.92in /  1013.1hPa NW 4.1mph /  6.6km/h 21mph /  33.8km/h 59.8% 0.00in /  0mm 19 W/m2
16:54 53.1 °F /  11.7 °C 39.3 °F /  4.1 °C 29.94in /  1013.8hPa NW 11.2mph /  18km/h 21mph /  33.8km/h 59.2% 0.00in /  0mm 19 W/m2
16:59 52 °F /  11.1 °C 38.2 °F /  3.4 °C 29.94in /  1013.8hPa NW 8.9mph /  14.3km/h 21mph /  33.8km/h 59.1% 0.00in /  0mm 19 W/m2
17:04 51.2 °F /  10.7 °C 37.8 °F /  3.2 °C 29.96in /  1014.4hPa NW 5.4mph /  8.7km/h 21mph /  33.8km/h 60% 0.00in /  0mm 21 W/m2
17:09 50.6 °F /  10.3 °C 37.5 °F /  3.1 °C 29.97in /  1014.8hPa NW 9.9mph /  15.9km/h 22mph /  35.4km/h 60.6% 0.00in /  0mm 21 W/m2
17:14 49.7 °F /  9.8 °C 36.5 °F /  2.5 °C 29.97in /  1014.8hPa NW 9.2mph /  14.8km/h 22mph /  35.4km/h 60.4% 0.00in /  0mm 14 W/m2
17:19 48.8 °F /  9.3 °C 36 °F /  2.2 °C 29.98in /  1015.1hPa NW 9.3mph /  15km/h 22mph /  35.4km/h 61% 0.00in /  0mm 11 W/m2
17:24 48.1 °F /  8.9 °C 35.7 °F /  2.1 °C 29.99in /  1015.5hPa NW 6mph /  9.7km/h 22mph /  35.4km/h 62% 0.00in /  0mm 7 W/m2
17:29 47.6 °F /  8.7 °C 35.6 °F /  2 °C 30.00in /  1015.8hPa NNW 6.7mph /  10.8km/h 22mph /  35.4km/h 63% 0.00in /  0mm 5 W/m2
17:34 46.9 °F /  8.3 °C 35.2 °F /  1.8 °C 30.00in /  1015.8hPa NW 7.6mph /  12.2km/h 22mph /  35.4km/h 63.6% 0.00in /  0mm 0 W/m2
17:38 46.3 °F /  7.9 °C 34.6 °F /  1.4 °C 30.01in /  1016.1hPa NW 8.8mph /  14.2km/h 20mph /  32.2km/h 63.4% 0.00in /  0mm 0 W/m2
17:44 45.2 °F /  7.3 °C 33.4 °F /  0.8 °C 30.01in /  1016.1hPa WNW 8.9mph /  14.3km/h 22mph /  35.4km/h 63% 0.00in /  0mm 0 W/m2
17:49 44.2 °F /  6.8 °C 32.9 °F /  0.5 °C 30.02in /  1016.5hPa NW 5.5mph /  8.9km/h 22mph /  35.4km/h 64.2% 0.00in /  0mm 0 W/m2
17:54 43.5 °F /  6.4 °C 32.6 °F /  0.3 °C 30.02in /  1016.5hPa NW 5.8mph /  9.3km/h 22mph /  35.4km/h 65.2% 0.00in /  0mm 0 W/m2
17:59 43 °F /  6.1 °C 32.4 °F /  0.2 °C 30.02in /  1016.5hPa NW 6.7mph /  10.8km/h 22mph /  35.4km/h 66% 0.00in /  0mm 0 W/m2
18:04 42.6 °F /  5.9 °C 32 °F /  0 °C 30.02in /  1016.5hPa NW 7.2mph /  11.6km/h 22mph /  35.4km/h 66% 0.00in /  0mm 0 W/m2
18:09 42.2 °F /  5.7 °C 31.8 °F /  -0.1 °C 30.04in /  1017.2hPa NW 4.2mph /  6.8km/h 17mph /  27.4km/h 66.4% 0.00in /  0mm 0 W/m2
18:14 41.9 °F /  5.5 °C 31.8 °F /  -0.1 °C 30.05in /  1017.5hPa NW 3.2mph /  5.1km/h 17mph /  27.4km/h 67% 0.00in /  0mm 0 W/m2
18:19 41.6 °F /  5.3 °C 31.5 °F /  -0.3 °C 30.05in /  1017.5hPa NW 3.4mph /  5.5km/h 17mph /  27.4km/h 67% 0.00in /  0mm 0 W/m2
18:24 41.4 °F /  5.2 °C 31.4 °F /  -0.3 °C 30.06in /  1017.8hPa WNW 1.5mph /  2.4km/h 17mph /  27.4km/h 67.3% 0.00in /  0mm 0 W/m2
18:29 41.3 °F /  5.2 °C 31.5 °F /  -0.3 °C 30.06in /  1017.8hPa NW 0.4mph /  0.6km/h 17mph /  27.4km/h 68% 0.00in /  0mm 0 W/m2
18:34 41.1 °F /  5.1 °C 31.3 °F /  -0.4 °C 30.07in /  1018.2hPa NW 2.5mph /  4km/h 17mph /  27.4km/h 68% 0.00in /  0mm 0 W/m2
18:39 40.9 °F /  4.9 °C 31.2 °F /  -0.4 °C 30.07in /  1018.2hPa NW 1.5mph /  2.4km/h 10mph /  16.1km/h 68% 0.00in /  0mm 0 W/m2
18:44 40.8 °F /  4.9 °C 31.1 °F /  -0.5 °C 30.08in /  1018.5hPa NW 1.8mph /  2.9km/h 11mph /  17.7km/h 68% 0.00in /  0mm 0 W/m2
18:49 40.7 °F /  4.8 °C 30.9 °F /  -0.6 °C 30.08in /  1018.5hPa NNW 4.4mph /  7.1km/h 11mph /  17.7km/h 67.8% 0.00in /  0mm 0 W/m2
18:54 40.6 °F /  4.8 °C 30.5 °F /  -0.8 °C 30.09in /  1018.8hPa NW 3.8mph /  6.1km/h 13mph /  20.9km/h 67% 0.00in /  0mm 0 W/m2
18:59 40.5 °F /  4.7 °C 30.1 °F /  -1.1 °C 30.10in /  1019.2hPa NW 9.8mph /  15.8km/h 21mph /  33.8km/h 66.2% 0.00in /  0mm 0 W/m2
19:04 40.4 °F /  4.7 °C 29.5 °F /  -1.4 °C 30.10in /  1019.2hPa NW 6.1mph /  9.8km/h 21mph /  33.8km/h 65% 0.00in /  0mm 0 W/m2
19:09 40.2 °F /  4.6 °C 29.2 °F /  -1.6 °C 30.10in /  1019.2hPa NW 9.5mph /  15.3km/h 19mph /  30.6km/h 64.6% 0.00in /  0mm 0 W/m2
19:14 40 °F /  4.4 °C 28.8 °F /  -1.8 °C 30.10in /  1019.2hPa NW 8.3mph /  13.4km/h 19mph /  30.6km/h 63.8% 0.00in /  0mm 0 W/m2
19:19 39.8 °F /  4.3 °C 28.4 °F /  -2 °C 30.10in /  1019.2hPa NW 8.4mph /  13.5km/h 19mph /  30.6km/h 63.5% 0.00in /  0mm 0 W/m2
19:24 39.6 °F /  4.2 °C 28 °F /  -2.2 °C 30.10in /  1019.2hPa NW 7.3mph /  11.7km/h 19mph /  30.6km/h 63% 0.00in /  0mm 0 W/m2
19:29 39.4 °F /  4.1 °C 28 °F /  -2.2 °C 30.10in /  1019.2hPa NW 4.9mph /  7.9km/h 19mph /  30.6km/h 63.4% 0.00in /  0mm 0 W/m2
19:34 39.3 °F /  4.1 °C 27.9 °F /  -2.3 °C 30.11in /  1019.5hPa NW 8mph /  12.9km/h 21mph /  33.8km/h 63.5% 0.00in /  0mm 0 W/m2
19:39 39.1 °F /  3.9 °C 27.6 °F /  -2.4 °C 30.11in /  1019.5hPa NW 5.5mph /  8.9km/h 21mph /  33.8km/h 63% 0.00in /  0mm 0 W/m2
19:44 38.9 °F /  3.8 °C 27.6 °F /  -2.4 °C 30.11in /  1019.5hPa NW 3.4mph /  5.5km/h 21mph /  33.8km/h 63.4% 0.00in /  0mm 0 W/m2
19:49 38.7 °F /  3.7 °C 27.2 °F /  -2.7 °C 30.11in /  1019.5hPa NW 8.7mph /  14km/h 21mph /  33.8km/h 63% 0.00in /  0mm 0 W/m2
19:54 38.5 °F /  3.6 °C 26.8 °F /  -2.9 °C 30.12in /  1019.9hPa NW 7mph /  11.3km/h 21mph /  33.8km/h 62.5% 0.00in /  0mm 0 W/m2
19:59 38.2 °F /  3.4 °C 26.7 °F /  -2.9 °C 30.13in /  1020.2hPa NW 7.3mph /  11.7km/h 21mph /  33.8km/h 63% 0.00in /  0mm 0 W/m2
20:09 37.6 °F /  3.1 °C 26 °F /  -3.3 °C 30.13in /  1020.2hPa NW 6.8mph /  10.9km/h 14mph /  22.5km/h 62.7% 0.00in /  0mm 0 W/m2
20:14 37.4 °F /  3 °C 25.9 °F /  -3.4 °C 30.14in /  1020.5hPa NW 5.6mph /  9km/h 14mph /  22.5km/h 63% 0.00in /  0mm 0 W/m2
20:19 37.1 °F /  2.8 °C 25.9 °F /  -3.4 °C 30.14in /  1020.5hPa NW 4.3mph /  6.9km/h 14mph /  22.5km/h 63.4% 0.00in /  0mm 0 W/m2
20:24 36.9 °F /  2.7 °C 25.5 °F /  -3.6 °C 30.14in /  1020.5hPa NW 6.7mph /  10.8km/h 14mph /  22.5km/h 63% 0.00in /  0mm 0 W/m2
20:29 36.6 °F /  2.6 °C 24.9 °F /  -3.9 °C 30.14in /  1020.5hPa NW 6mph /  9.7km/h 16mph /  25.7km/h 62.2% 0.00in /  0mm 0 W/m2
20:34 36.4 °F /  2.4 °C 24.4 °F /  -4.2 °C 30.14in /  1020.5hPa NW 7.5mph /  12.1km/h 25mph /  40.2km/h 61.3% 0.00in /  0mm 0 W/m2
20:39 36.2 °F /  2.3 °C 24 °F /  -4.4 °C 30.15in /  1020.9hPa NW 5.8mph /  9.3km/h 25mph /  40.2km/h 61% 0.00in /  0mm 0 W/m2
20:44 36 °F /  2.2 °C 23.9 °F /  -4.5 °C 30.15in /  1020.9hPa NW 6.6mph /  10.6km/h 25mph /  40.2km/h 61.2% 0.00in /  0mm 0 W/m2
20:49 35.8 °F /  2.1 °C 24 °F /  -4.4 °C 30.15in /  1020.9hPa NW 8mph /  12.9km/h 25mph /  40.2km/h 61.7% 0.00in /  0mm 0 W/m2
20:54 35.7 °F /  2.1 °C 23.6 °F /  -4.7 °C 30.16in /  1021.2hPa NNW 7.2mph /  11.6km/h 25mph /  40.2km/h 61.2% 0.00in /  0mm 0 W/m2
20:59 35.5 °F /  1.9 °C 23.4 °F /  -4.8 °C 30.16in /  1021.2hPa NW 7.2mph /  11.6km/h 25mph /  40.2km/h 61% 0.00in /  0mm 0 W/m2
21:04 35.3 °F /  1.8 °C 23.3 °F /  -4.8 °C 30.16in /  1021.2hPa NNW 4.7mph /  7.6km/h 25mph /  40.2km/h 61.3% 0.00in /  0mm 0 W/m2
21:09 35.1 °F /  1.7 °C 23 °F /  -5 °C 30.16in /  1021.2hPa NW 7.3mph /  11.7km/h 13mph /  20.9km/h 61% 0.00in /  0mm 0 W/m2
21:14 34.8 °F /  1.6 °C 23 °F /  -5 °C 30.17in /  1021.6hPa NW 2.1mph /  3.4km/h 13mph /  20.9km/h 61.7% 0.00in /  0mm 0 W/m2
21:19 34.6 °F /  1.4 °C 22.8 °F /  -5.1 °C 30.16in /  1021.2hPa NW 8.9mph /  14.3km/h 20mph /  32.2km/h 61.7% 0.00in /  0mm 0 W/m2
21:24 34.3 °F /  1.3 °C 22.6 °F /  -5.2 °C 30.16in /  1021.2hPa NNW 6mph /  9.7km/h 20mph /  32.2km/h 62% 0.00in /  0mm 0 W/m2
21:29 34.1 °F /  1.2 °C 22.3 °F /  -5.4 °C 30.16in /  1021.2hPa NW 9.1mph /  14.6km/h 21mph /  33.8km/h 61.8% 0.00in /  0mm 0 W/m2
21:34 33.8 °F /  1 °C 22.2 °F /  -5.4 °C 30.17in /  1021.6hPa NW 7mph /  11.3km/h 21mph /  33.8km/h 62% 0.00in /  0mm 0 W/m2
21:39 33.7 °F /  0.9 °C 21.9 °F /  -5.6 °C 30.17in /  1021.6hPa NNW 7.3mph /  11.7km/h 17mph /  27.4km/h 61.6% 0.00in /  0mm 0 W/m2
21:44 33.5 °F /  0.8 °C 21.1 °F /  -6.1 °C 30.16in /  1021.2hPa NW 8.5mph /  13.7km/h 19mph /  30.6km/h 59.9% 0.00in /  0mm 0 W/m2
21:49 33.4 °F /  0.8 °C 20.4 °F /  -6.4 °C 30.17in /  1021.6hPa NW 6.5mph /  10.5km/h 19mph /  30.6km/h 58.5% 0.00in /  0mm 0 W/m2
21:54 33.3 °F /  0.7 °C 20.3 °F /  -6.5 °C 30.18in /  1021.9hPa NW 4.6mph /  7.4km/h 19mph /  30.6km/h 58.5% 0.00in /  0mm 0 W/m2
21:59 33.2 °F /  0.7 °C 20.1 °F /  -6.6 °C 30.18in /  1021.9hPa NW 5.8mph /  9.3km/h 19mph /  30.6km/h 58% 0.00in /  0mm 0 W/m2
22:04 33.1 °F /  0.6 °C 19.9 °F /  -6.7 °C 30.18in /  1021.9hPa NW 3.8mph /  6.1km/h 19mph /  30.6km/h 57.8% 0.00in /  0mm 0 W/m2
22:09 33 °F /  0.6 °C 19.8 °F /  -6.8 °C 30.18in /  1021.9hPa NW 9.4mph /  15.1km/h 20mph /  32.2km/h 57.8% 0.00in /  0mm 0 W/m2
22:14 32.8 °F /  0.4 °C 19.6 °F /  -6.9 °C 30.18in /  1021.9hPa NNW 5.7mph /  9.2km/h 20mph /  32.2km/h 57.8% 0.00in /  0mm 0 W/m2
22:19 32.6 °F /  0.3 °C 19.5 °F /  -6.9 °C 30.19in /  1022.2hPa NW 3.1mph /  5km/h 20mph /  32.2km/h 58% 0.00in /  0mm 0 W/m2
22:24 32.5 °F /  0.3 °C 19.7 °F /  -6.8 °C 30.19in /  1022.2hPa NW 2.8mph /  4.5km/h 20mph /  32.2km/h 58.8% 0.00in /  0mm 0 W/m2
22:29 32.4 °F /  0.2 °C 19.4 °F /  -7 °C 30.19in /  1022.2hPa WNW 1.3mph /  2.1km/h 20mph /  32.2km/h 58.3% 0.00in /  0mm 0 W/m2
22:34 32.3 °F /  0.2 °C 19.6 °F /  -6.9 °C 30.19in /  1022.2hPa NNW 3.3mph /  5.3km/h 20mph /  32.2km/h 59% 0.00in /  0mm 0 W/m2
22:39 32.2 °F /  0.1 °C 19.5 °F /  -6.9 °C 30.19in /  1022.2hPa NNW 1.7mph /  2.7km/h 9mph /  14.5km/h 59% 0.00in /  0mm 0 W/m2
22:44 32.2 °F /  0.1 °C 19.6 °F /  -6.9 °C 30.20in /  1022.6hPa NNW 3.1mph /  5km/h 10mph /  16.1km/h 59.3% 0.00in /  0mm 0 W/m2
22:49 32.1 °F /  0.1 °C 19.2 °F /  -7.1 °C 30.20in /  1022.6hPa NW 4.6mph /  7.4km/h 14mph /  22.5km/h 58.6% 0.00in /  0mm 0 W/m2
22:54 32 °F /  0 °C 19.1 °F /  -7.2 °C 30.20in /  1022.6hPa NNW 6.4mph /  10.3km/h 14mph /  22.5km/h 58.7% 0.00in /  0mm 0 W/m2
22:59 31.8 °F /  -0.1 °C 18.8 °F /  -7.3 °C 30.20in /  1022.6hPa NW 7mph /  11.3km/h 15mph /  24.1km/h 58.2% 0.00in /  0mm 0 W/m2
23:09 31.5 °F /  -0.3 °C 18.6 °F /  -7.4 °C 30.21in /  1022.9hPa NW 6.7mph /  10.8km/h 13mph /  20.9km/h 58.4% 0.00in /  0mm 0 W/m2
23:14 31.4 °F /  -0.3 °C 18.7 °F /  -7.4 °C 30.21in /  1022.9hPa NW 5.6mph /  9km/h 14mph /  22.5km/h 58.9% 0.00in /  0mm 0 W/m2
23:19 31.3 °F /  -0.4 °C 18.6 °F /  -7.4 °C 30.22in /  1023.2hPa NW 3.8mph /  6.1km/h 14mph /  22.5km/h 59% 0.00in /  0mm 0 W/m2
23:24 31.2 °F /  -0.4 °C 18.7 °F /  -7.4 °C 30.22in /  1023.2hPa NNW 2.6mph /  4.2km/h 14mph /  22.5km/h 59.3% 0.00in /  0mm 0 W/m2
23:29 31.1 °F /  -0.5 °C 18.7 °F /  -7.4 °C 30.23in /  1023.6hPa NW 4.9mph /  7.9km/h 14mph /  22.5km/h 59.5% 0.00in /  0mm 0 W/m2
23:34 31 °F /  -0.6 °C 18.4 °F /  -7.6 °C 30.23in /  1023.6hPa NW 5.7mph /  9.2km/h 14mph /  22.5km/h 59% 0.00in /  0mm 0 W/m2
23:39 30.9 °F /  -0.6 °C 18.6 °F /  -7.4 °C 30.24in /  1023.9hPa NW 6.9mph /  11.1km/h 14mph /  22.5km/h 60% 0.00in /  0mm 0 W/m2
23:44 30.7 °F /  -0.7 °C 18.3 °F /  -7.6 °C 30.24in /  1023.9hPa WNW 8.7mph /  14km/h 15mph /  24.1km/h 59.4% 0.00in /  0mm 0 W/m2
23:49 30.6 °F /  -0.8 °C 18.1 °F /  -7.7 °C 30.23in /  1023.6hPa WNW 7.7mph /  12.4km/h 17mph /  27.4km/h 59.2% 0.00in /  0mm 0 W/m2
23:54 30.5 °F /  -0.8 °C 18.1 °F /  -7.7 °C 30.24in /  1023.9hPa NW 9mph /  14.5km/h 18mph /  29km/h 59.6% 0.00in /  0mm 0 W/m2
23:59 30.4 °F /  -0.9 °C 18.2 °F /  -7.7 °C 30.24in /  1023.9hPa NW 10.6mph /  17.1km/h 18mph /  29km/h 60% 0.00in /  0mm 0 W/m2
Hartford County Weather
Compliments of Weather Underground - 4 mb